sensor_id;sensor_type;location;lat;lon;timestamp;pressure;altitude;pressure_sealevel;temperature;humidity
75247;BME280;63844;50.042;19.224;2023-02-01T00:00:53;98496.67;;;1.54;87.85
75247;BME280;63844;50.042;19.224;2023-02-01T00:03:25;98496.23;;;1.52;87.72
75247;BME280;63844;50.042;19.224;2023-02-01T00:05:59;98491.23;;;1.55;87.61
75247;BME280;63844;50.042;19.224;2023-02-01T00:08:26;98482.32;;;1.52;87.91
75247;BME280;63844;50.042;19.224;2023-02-01T00:11:01;98478.14;;;1.51;88.02
75247;BME280;63844;50.042;19.224;2023-02-01T00:13:29;98475.30;;;1.53;87.74
75247;BME280;63844;50.042;19.224;2023-02-01T00:16:08;98468.27;;;1.54;87.54
75247;BME280;63844;50.042;19.224;2023-02-01T00:18:36;98464.27;;;1.54;87.38
75247;BME280;63844;50.042;19.224;2023-02-01T00:21:02;98469.33;;;1.54;87.29
75247;BME280;63844;50.042;19.224;2023-02-01T00:23:32;98465.81;;;1.54;87.08
75247;BME280;63844;50.042;19.224;2023-02-01T00:26:07;98466.41;;;1.57;86.67
75247;BME280;63844;50.042;19.224;2023-02-01T00:28:33;98458.02;;;1.53;86.93
75247;BME280;63844;50.042;19.224;2023-02-01T00:31:02;98459.34;;;1.55;86.39
75247;BME280;63844;50.042;19.224;2023-02-01T00:33:30;98454.14;;;1.54;86.53
75247;BME280;63844;50.042;19.224;2023-02-01T00:35:58;98442.84;;;1.53;86.54
75247;BME280;63844;50.042;19.224;2023-02-01T00:38:26;98451.71;;;1.54;86.42
75247;BME280;63844;50.042;19.224;2023-02-01T00:40:54;98436.92;;;1.53;86.48
75247;BME280;63844;50.042;19.224;2023-02-01T00:43:20;98427.63;;;1.50;86.38
75247;BME280;63844;50.042;19.224;2023-02-01T00:45:47;98438.90;;;1.52;86.35
75247;BME280;63844;50.042;19.224;2023-02-01T00:48:13;98430.45;;;1.53;86.39
75247;BME280;63844;50.042;19.224;2023-02-01T00:50:43;98440.71;;;1.59;86.09
75247;BME280;63844;50.042;19.224;2023-02-01T00:53:10;98447.96;;;1.56;86.11
75247;BME280;63844;50.042;19.224;2023-02-01T00:55:37;98450.26;;;1.60;85.79
75247;BME280;63844;50.042;19.224;2023-02-01T00:58:04;98435.06;;;1.61;85.88
75247;BME280;63844;50.042;19.224;2023-02-01T01:00:32;98439.98;;;1.64;85.70
75247;BME280;63844;50.042;19.224;2023-02-01T01:02:59;98434.80;;;1.72;85.24
75247;BME280;63844;50.042;19.224;2023-02-01T01:05:25;98438.20;;;1.74;85.11
75247;BME280;63844;50.042;19.224;2023-02-01T01:07:53;98435.95;;;1.78;85.06
75247;BME280;63844;50.042;19.224;2023-02-01T01:10:20;98434.67;;;1.84;84.88
75247;BME280;63844;50.042;19.224;2023-02-01T01:12:47;98439.52;;;1.85;84.79
75247;BME280;63844;50.042;19.224;2023-02-01T01:15:13;98440.89;;;1.86;84.70
75247;BME280;63844;50.042;19.224;2023-02-01T01:17:40;98439.53;;;1.89;84.60
75247;BME280;63844;50.042;19.224;2023-02-01T01:20:07;98459.71;;;1.90;84.37
75247;BME280;63844;50.042;19.224;2023-02-01T01:22:33;98481.02;;;1.94;84.31
75247;BME280;63844;50.042;19.224;2023-02-01T01:25:00;98483.40;;;1.96;84.17
75247;BME280;63844;50.042;19.224;2023-02-01T01:27:26;98502.77;;;1.96;84.43
75247;BME280;63844;50.042;19.224;2023-02-01T01:29:53;98534.31;;;1.97;84.50
75247;BME280;63844;50.042;19.224;2023-02-01T01:32:19;98545.46;;;1.89;85.20
75247;BME280;63844;50.042;19.224;2023-02-01T01:34:45;98585.05;;;1.47;87.14
75247;BME280;63844;50.042;19.224;2023-02-01T01:37:12;98565.55;;;1.06;87.84
75247;BME280;63844;50.042;19.224;2023-02-01T01:39:38;98557.79;;;0.73;88.86
75247;BME280;63844;50.042;19.224;2023-02-01T01:42:05;98554.83;;;0.57;89.97
75247;BME280;63844;50.042;19.224;2023-02-01T01:44:56;98552.20;;;0.52;90.01
75247;BME280;63844;50.042;19.224;2023-02-01T01:47:24;98565.54;;;0.49;90.37
75247;BME280;63844;50.042;19.224;2023-02-01T01:49:51;98581.45;;;0.47;90.57
75247;BME280;63844;50.042;19.224;2023-02-01T01:52:18;98581.38;;;0.43;90.53
75247;BME280;63844;50.042;19.224;2023-02-01T01:54:49;98585.41;;;0.37;91.14
75247;BME280;63844;50.042;19.224;2023-02-01T01:57:23;98589.53;;;0.33;90.96
75247;BME280;63844;50.042;19.224;2023-02-01T02:00:08;98585.67;;;0.34;90.88
75247;BME280;63844;50.042;19.224;2023-02-01T02:02:37;98595.23;;;0.35;90.73
75247;BME280;63844;50.042;19.224;2023-02-01T02:05:04;98589.10;;;0.31;90.87
75247;BME280;63844;50.042;19.224;2023-02-01T02:07:35;98593.14;;;0.29;90.98
75247;BME280;63844;50.042;19.224;2023-02-01T02:10:10;98596.48;;;0.28;91.00
75247;BME280;63844;50.042;19.224;2023-02-01T02:12:39;98592.23;;;0.25;91.22
75247;BME280;63844;50.042;19.224;2023-02-01T02:15:12;98590.91;;;0.22;91.20
75247;BME280;63844;50.042;19.224;2023-02-01T02:17:56;98576.52;;;0.20;91.54
75247;BME280;63844;50.042;19.224;2023-02-01T02:20:42;98563.73;;;0.18;91.44
75247;BME280;63844;50.042;19.224;2023-02-01T02:32:23;98550.50;;;0.18;91.79
75247;BME280;63844;50.042;19.224;2023-02-01T02:35:16;98550.44;;;0.19;91.51
75247;BME280;63844;50.042;19.224;2023-02-01T02:37:55;98560.86;;;0.20;91.65
75247;BME280;63844;50.042;19.224;2023-02-01T02:40:31;98557.83;;;0.23;91.69
75247;BME280;63844;50.042;19.224;2023-02-01T02:43:12;98556.07;;;0.24;91.43
75247;BME280;63844;50.042;19.224;2023-02-01T02:46:15;98558.43;;;0.26;91.43
75247;BME280;63844;50.042;19.224;2023-02-01T02:49:23;98563.23;;;0.29;91.45
75247;BME280;63844;50.042;19.224;2023-02-01T02:52:01;98565.44;;;0.30;91.36
75247;BME280;63844;50.042;19.224;2023-02-01T02:54:50;98562.13;;;0.30;91.49
75247;BME280;63844;50.042;19.224;2023-02-01T02:57:27;98557.63;;;0.30;91.49
75247;BME280;63844;50.042;19.224;2023-02-01T03:00:18;98562.80;;;0.31;91.45
75247;BME280;63844;50.042;19.224;2023-02-01T03:03:05;98565.89;;;0.32;91.35
75247;BME280;63844;50.042;19.224;2023-02-01T03:05:51;98562.59;;;0.32;91.32
75247;BME280;63844;50.042;19.224;2023-02-01T03:08:20;98562.93;;;0.32;91.09
75247;BME280;63844;50.042;19.224;2023-02-01T03:10:57;98565.16;;;0.33;91.08
75247;BME280;63844;50.042;19.224;2023-02-01T03:13:52;98557.05;;;0.37;90.60
75247;BME280;63844;50.042;19.224;2023-02-01T03:16:28;98559.82;;;0.37;90.79
75247;BME280;63844;50.042;19.224;2023-02-01T03:21:37;98561.77;;;0.36;90.58
75247;BME280;63844;50.042;19.224;2023-02-01T03:24:09;98566.61;;;0.36;90.54
75247;BME280;63844;50.042;19.224;2023-02-01T03:26:43;98571.83;;;0.37;90.57
75247;BME280;63844;50.042;19.224;2023-02-01T03:29:16;98572.95;;;0.40;90.43
75247;BME280;63844;50.042;19.224;2023-02-01T03:31:44;98570.58;;;0.44;90.50
75247;BME280;63844;50.042;19.224;2023-02-01T03:34:12;98579.57;;;0.46;90.58
75247;BME280;63844;50.042;19.224;2023-02-01T03:36:46;98581.27;;;0.47;90.44
75247;BME280;63844;50.042;19.224;2023-02-01T03:41:51;98585.81;;;0.46;90.65
75247;BME280;63844;50.042;19.224;2023-02-01T03:44:31;98584.37;;;0.48;90.66
75247;BME280;63844;50.042;19.224;2023-02-01T03:47:03;98592.05;;;0.53;90.69
75247;BME280;63844;50.042;19.224;2023-02-01T03:52:02;98582.56;;;0.61;90.35
75247;BME280;63844;50.042;19.224;2023-02-01T03:54:32;98596.02;;;0.59;90.53
75247;BME280;63844;50.042;19.224;2023-02-01T03:57:01;98601.84;;;0.57;90.59
75247;BME280;63844;50.042;19.224;2023-02-01T03:59:31;98602.26;;;0.55;90.73
75247;BME280;63844;50.042;19.224;2023-02-01T04:01:57;98605.35;;;0.50;91.21
75247;BME280;63844;50.042;19.224;2023-02-01T04:04:24;98601.98;;;0.47;91.21
75247;BME280;63844;50.042;19.224;2023-02-01T04:06:50;98609.96;;;0.42;91.30
75247;BME280;63844;50.042;19.224;2023-02-01T04:09:17;98609.92;;;0.38;91.53
75247;BME280;63844;50.042;19.224;2023-02-01T04:11:44;98610.59;;;0.34;91.62
75247;BME280;63844;50.042;19.224;2023-02-01T04:14:11;98613.45;;;0.31;91.60
75247;BME280;63844;50.042;19.224;2023-02-01T04:16:37;98594.67;;;0.25;91.89
75247;BME280;63844;50.042;19.224;2023-02-01T04:19:03;98590.86;;;0.24;92.32
75247;BME280;63844;50.042;19.224;2023-02-01T04:21:30;98590.00;;;0.24;92.44
75247;BME280;63844;50.042;19.224;2023-02-01T04:23:57;98596.39;;;0.26;92.53
75247;BME280;63844;50.042;19.224;2023-02-01T04:26:24;98594.86;;;0.30;92.22
75247;BME280;63844;50.042;19.224;2023-02-01T04:28:50;98594.78;;;0.32;92.19
75247;BME280;63844;50.042;19.224;2023-02-01T04:31:19;98586.98;;;0.31;92.30
75247;BME280;63844;50.042;19.224;2023-02-01T04:33:52;98582.97;;;0.32;92.10
75247;BME280;63844;50.042;19.224;2023-02-01T04:36:20;98587.27;;;0.33;92.10
75247;BME280;63844;50.042;19.224;2023-02-01T04:38:49;98587.20;;;0.35;92.26
75247;BME280;63844;50.042;19.224;2023-02-01T04:41:15;98583.61;;;0.39;92.03
75247;BME280;63844;50.042;19.224;2023-02-01T04:43:46;98583.96;;;0.39;92.19
75247;BME280;63844;50.042;19.224;2023-02-01T04:46:13;98576.98;;;0.39;92.46
75247;BME280;63844;50.042;19.224;2023-02-01T04:48:40;98579.06;;;0.39;92.02
75247;BME280;63844;50.042;19.224;2023-02-01T04:51:06;98576.27;;;0.40;92.04
75247;BME280;63844;50.042;19.224;2023-02-01T04:53:33;98576.38;;;0.42;91.82
75247;BME280;63844;50.042;19.224;2023-02-01T04:55:59;98580.92;;;0.41;91.86
75247;BME280;63844;50.042;19.224;2023-02-01T04:58:26;98583.20;;;0.41;91.97
75247;BME280;63844;50.042;19.224;2023-02-01T05:00:52;98580.70;;;0.43;91.71
75247;BME280;63844;50.042;19.224;2023-02-01T05:03:19;98576.98;;;0.45;91.80
75247;BME280;63844;50.042;19.224;2023-02-01T05:05:49;98572.27;;;0.51;91.24
75247;BME280;63844;50.042;19.224;2023-02-01T05:08:15;98562.40;;;0.54;90.95
75247;BME280;63844;50.042;19.224;2023-02-01T05:10:42;98565.22;;;0.58;90.74
75247;BME280;63844;50.042;19.224;2023-02-01T05:13:10;98568.38;;;0.63;90.22
75247;BME280;63844;50.042;19.224;2023-02-01T05:15:55;98573.07;;;0.69;89.86
75247;BME280;63844;50.042;19.224;2023-02-01T05:18:21;98575.88;;;0.74;89.44
75247;BME280;63844;50.042;19.224;2023-02-01T05:20:47;98575.59;;;0.77;89.25
75247;BME280;63844;50.042;19.224;2023-02-01T05:23:14;98570.06;;;0.81;88.60
75247;BME280;63844;50.042;19.224;2023-02-01T05:25:40;98568.81;;;0.81;88.59
75247;BME280;63844;50.042;19.224;2023-02-01T05:28:07;98565.46;;;0.83;88.26
75247;BME280;63844;50.042;19.224;2023-02-01T05:30:33;98563.42;;;0.87;88.17
75247;BME280;63844;50.042;19.224;2023-02-01T05:33:02;98559.69;;;0.89;87.87
75247;BME280;63844;50.042;19.224;2023-02-01T05:35:29;98562.85;;;0.93;87.55
75247;BME280;63844;50.042;19.224;2023-02-01T05:37:55;98562.02;;;0.97;87.24
75247;BME280;63844;50.042;19.224;2023-02-01T05:40:22;98561.94;;;1.00;87.20
75247;BME280;63844;50.042;19.224;2023-02-01T05:42:48;98563.14;;;1.05;86.39
75247;BME280;63844;50.042;19.224;2023-02-01T05:45:15;98567.95;;;1.12;85.78
75247;BME280;63844;50.042;19.224;2023-02-01T05:47:41;98567.54;;;1.15;85.87
75247;BME280;63844;50.042;19.224;2023-02-01T05:50:08;98564.51;;;1.16;85.91
75247;BME280;63844;50.042;19.224;2023-02-01T05:52:35;98562.96;;;1.16;85.26
75247;BME280;63844;50.042;19.224;2023-02-01T05:55:01;98561.57;;;1.16;85.36
75247;BME280;63844;50.042;19.224;2023-02-01T05:57:28;98561.39;;;1.16;84.93
75247;BME280;63844;50.042;19.224;2023-02-01T05:59:54;98564.52;;;1.21;84.78
75247;BME280;63844;50.042;19.224;2023-02-01T06:02:21;98557.42;;;1.25;84.01
75247;BME280;63844;50.042;19.224;2023-02-01T06:04:50;98558.06;;;1.26;83.86
75247;BME280;63844;50.042;19.224;2023-02-01T06:07:17;98564.42;;;1.28;83.97
75247;BME280;63844;50.042;19.224;2023-02-01T06:09:43;98563.48;;;1.30;83.78
75247;BME280;63844;50.042;19.224;2023-02-01T06:12:10;98563.48;;;1.30;83.48
75247;BME280;63844;50.042;19.224;2023-02-01T06:14:36;98558.17;;;1.32;82.95
75247;BME280;63844;50.042;19.224;2023-02-01T06:17:03;98558.02;;;1.37;82.74
75247;BME280;63844;50.042;19.224;2023-02-01T06:19:29;98558.93;;;1.40;82.43
75247;BME280;63844;50.042;19.224;2023-02-01T06:21:56;98559.05;;;1.42;82.08
75247;BME280;63844;50.042;19.224;2023-02-01T06:24:23;98556.56;;;1.43;82.21
75247;BME280;63844;50.042;19.224;2023-02-01T06:26:49;98552.51;;;1.45;82.80
75247;BME280;63844;50.042;19.224;2023-02-01T06:29:15;98555.33;;;1.43;82.65
75247;BME280;63844;50.042;19.224;2023-02-01T06:31:42;98559.36;;;1.48;82.88
75247;BME280;63844;50.042;19.224;2023-02-01T06:34:09;98559.88;;;1.48;82.65
75247;BME280;63844;50.042;19.224;2023-02-01T06:36:35;98557.48;;;1.47;82.53
75247;BME280;63844;50.042;19.224;2023-02-01T06:39:02;98555.93;;;1.46;82.78
75247;BME280;63844;50.042;19.224;2023-02-01T06:41:29;98559.16;;;1.48;82.83
75247;BME280;63844;50.042;19.224;2023-02-01T06:43:55;98563.64;;;1.50;83.23
75247;BME280;63844;50.042;19.224;2023-02-01T06:46:22;98562.35;;;1.52;82.65
75247;BME280;63844;50.042;19.224;2023-02-01T06:48:48;98566.74;;;1.56;82.06
75247;BME280;63844;50.042;19.224;2023-02-01T06:51:25;98563.94;;;1.56;82.52
75247;BME280;63844;50.042;19.224;2023-02-01T06:53:52;98562.98;;;1.59;82.39
75247;BME280;63844;50.042;19.224;2023-02-01T06:56:19;98557.76;;;1.59;82.23
75247;BME280;63844;50.042;19.224;2023-02-01T06:58:46;98560.16;;;1.60;82.18
75247;BME280;63844;50.042;19.224;2023-02-01T07:01:14;98555.61;;;1.65;82.39
75247;BME280;63844;50.042;19.224;2023-02-01T07:03:41;98555.95;;;1.69;81.82
75247;BME280;63844;50.042;19.224;2023-02-01T07:06:08;98552.08;;;1.70;81.79
75247;BME280;63844;50.042;19.224;2023-02-01T07:08:37;98547.59;;;1.74;82.19
75247;BME280;63844;50.042;19.224;2023-02-01T07:11:07;98544.00;;;1.72;81.38
75247;BME280;63844;50.042;19.224;2023-02-01T07:13:34;98542.11;;;1.76;81.47
75247;BME280;63844;50.042;19.224;2023-02-01T07:16:03;98542.59;;;1.81;81.69
75247;BME280;63844;50.042;19.224;2023-02-01T07:18:31;98541.64;;;1.84;81.14
75247;BME280;63844;50.042;19.224;2023-02-01T07:20:58;98542.56;;;1.87;81.38
75247;BME280;63844;50.042;19.224;2023-02-01T07:23:26;98543.06;;;1.88;81.43
75247;BME280;63844;50.042;19.224;2023-02-01T07:25:54;98538.63;;;1.89;81.56
75247;BME280;63844;50.042;19.224;2023-02-01T07:28:21;98540.65;;;1.91;81.01
75247;BME280;63844;50.042;19.224;2023-02-01T07:30:48;98540.40;;;1.97;81.17
75247;BME280;63844;50.042;19.224;2023-02-01T07:33:22;98543.78;;;2.00;80.45
75247;BME280;63844;50.042;19.224;2023-02-01T07:35:50;98546.92;;;2.05;80.09
75247;BME280;63844;50.042;19.224;2023-02-01T07:38:17;98545.06;;;2.08;79.99
75247;BME280;63844;50.042;19.224;2023-02-01T07:40:43;98549.15;;;2.11;80.67
75247;BME280;63844;50.042;19.224;2023-02-01T07:43:10;98541.83;;;2.10;80.32
75247;BME280;63844;50.042;19.224;2023-02-01T07:45:36;98543.51;;;2.13;79.98
75247;BME280;63844;50.042;19.224;2023-02-01T07:48:03;98535.92;;;2.14;79.36
75247;BME280;63844;50.042;19.224;2023-02-01T07:50:30;98531.35;;;2.20;79.92
75247;BME280;63844;50.042;19.224;2023-02-01T07:53:00;98530.73;;;2.22;79.58
75247;BME280;63844;50.042;19.224;2023-02-01T07:55:27;98534.45;;;2.25;79.72
75247;BME280;63844;50.042;19.224;2023-02-01T07:57:57;98534.20;;;2.27;79.64
75247;BME280;63844;50.042;19.224;2023-02-01T08:00:25;98531.75;;;2.27;79.34
75247;BME280;63844;50.042;19.224;2023-02-01T08:03:10;98532.67;;;2.30;79.27
75247;BME280;63844;50.042;19.224;2023-02-01T08:05:37;98539.14;;;2.30;78.94
75247;BME280;63844;50.042;19.224;2023-02-01T08:08:04;98542.80;;;2.35;78.93
75247;BME280;63844;50.042;19.224;2023-02-01T08:10:31;98535.95;;;2.35;78.78
75247;BME280;63844;50.042;19.224;2023-02-01T08:12:58;98536.46;;;2.36;77.96
75247;BME280;63844;50.042;19.224;2023-02-01T08:15:27;98533.91;;;2.38;78.65
75247;BME280;63844;50.042;19.224;2023-02-01T08:17:54;98536.23;;;2.37;78.51
75247;BME280;63844;50.042;19.224;2023-02-01T08:20:22;98530.33;;;2.36;78.33
75247;BME280;63844;50.042;19.224;2023-02-01T08:22:54;98532.13;;;2.39;78.41
75247;BME280;63844;50.042;19.224;2023-02-01T08:25:22;98530.50;;;2.36;78.42
75247;BME280;63844;50.042;19.224;2023-02-01T08:27:50;98543.13;;;2.35;77.97
75247;BME280;63844;50.042;19.224;2023-02-01T08:30:17;98536.14;;;2.39;78.32
75247;BME280;63844;50.042;19.224;2023-02-01T08:32:44;98536.59;;;2.41;78.09
75247;BME280;63844;50.042;19.224;2023-02-01T08:35:10;98529.05;;;2.42;77.84
75247;BME280;63844;50.042;19.224;2023-02-01T08:37:37;98528.77;;;2.45;77.50
75247;BME280;63844;50.042;19.224;2023-02-01T08:40:04;98526.98;;;2.46;77.78
75247;BME280;63844;50.042;19.224;2023-02-01T08:42:31;98528.02;;;2.50;77.91
75247;BME280;63844;50.042;19.224;2023-02-01T08:45:21;98527.95;;;2.52;77.83
75247;BME280;63844;50.042;19.224;2023-02-01T08:47:48;98526.42;;;2.55;77.88
75247;BME280;63844;50.042;19.224;2023-02-01T08:50:15;98524.65;;;2.56;77.25
75247;BME280;63844;50.042;19.224;2023-02-01T08:52:41;98527.79;;;2.60;77.59
75247;BME280;63844;50.042;19.224;2023-02-01T08:55:09;98520.56;;;2.62;77.12
75247;BME280;63844;50.042;19.224;2023-02-01T08:57:36;98522.43;;;2.67;77.59
75247;BME280;63844;50.042;19.224;2023-02-01T09:00:04;98523.64;;;2.68;77.08
75247;BME280;63844;50.042;19.224;2023-02-01T09:02:31;98518.69;;;2.69;77.14
75247;BME280;63844;50.042;19.224;2023-02-01T09:04:58;98520.10;;;2.73;77.26
75247;BME280;63844;50.042;19.224;2023-02-01T09:07:24;98520.23;;;2.78;77.38
75247;BME280;63844;50.042;19.224;2023-02-01T09:09:50;98521.92;;;2.79;76.45
75247;BME280;63844;50.042;19.224;2023-02-01T09:12:17;98534.77;;;2.85;76.39
75247;BME280;63844;50.042;19.224;2023-02-01T09:14:43;98536.31;;;2.90;76.21
75247;BME280;63844;50.042;19.224;2023-02-01T09:17:10;98538.21;;;2.95;76.16
75247;BME280;63844;50.042;19.224;2023-02-01T09:19:37;98547.42;;;2.96;76.18
75247;BME280;63844;50.042;19.224;2023-02-01T09:22:04;98540.21;;;2.93;76.81
75247;BME280;63844;50.042;19.224;2023-02-01T09:24:30;98555.77;;;2.89;77.35
75247;BME280;63844;50.042;19.224;2023-02-01T09:26:57;98554.95;;;2.83;78.09
75247;BME280;63844;50.042;19.224;2023-02-01T09:29:23;98548.60;;;2.81;79.03
75247;BME280;63844;50.042;19.224;2023-02-01T09:31:50;98544.94;;;2.81;79.62
75247;BME280;63844;50.042;19.224;2023-02-01T09:34:16;98552.48;;;2.76;79.80
75247;BME280;63844;50.042;19.224;2023-02-01T09:36:43;98545.05;;;2.69;80.05
75247;BME280;63844;50.042;19.224;2023-02-01T09:39:09;98547.98;;;2.66;80.43
75247;BME280;63844;50.042;19.224;2023-02-01T09:41:46;98538.05;;;2.57;80.98
75247;BME280;63844;50.042;19.224;2023-02-01T09:47:20;98544.77;;;2.46;81.89
75247;BME280;63844;50.042;19.224;2023-02-01T09:49:54;98545.63;;;2.47;82.19
75247;BME280;63844;50.042;19.224;2023-02-01T09:55:38;98544.10;;;2.41;83.09
75247;BME280;63844;50.042;19.224;2023-02-01T09:58:11;98532.77;;;2.40;83.50
75247;BME280;63844;50.042;19.224;2023-02-01T10:00:51;98524.55;;;2.41;84.13
75247;BME280;63844;50.042;19.224;2023-02-01T10:03:19;98522.34;;;2.44;83.79
75247;BME280;63844;50.042;19.224;2023-02-01T10:25:56;98508.34;;;2.62;83.11
75247;BME280;63844;50.042;19.224;2023-02-01T10:28:27;98503.14;;;2.64;82.90
75247;BME280;63844;50.042;19.224;2023-02-01T10:30:56;98503.80;;;2.66;83.12
75247;BME280;63844;50.042;19.224;2023-02-01T10:33:37;98503.34;;;2.73;82.87
75247;BME280;63844;50.042;19.224;2023-02-01T10:36:21;98498.22;;;2.78;82.64
75247;BME280;63844;50.042;19.224;2023-02-01T10:38:49;98498.08;;;2.81;82.59
75247;BME280;63844;50.042;19.224;2023-02-01T10:41:23;98491.77;;;2.85;82.96
75247;BME280;63844;50.042;19.224;2023-02-01T10:43:57;98491.23;;;2.90;82.44
75247;BME280;63844;50.042;19.224;2023-02-01T10:46:25;98491.73;;;2.83;82.31
75247;BME280;63844;50.042;19.224;2023-02-01T10:48:52;98486.77;;;2.76;82.17
75247;BME280;63844;50.042;19.224;2023-02-01T10:53:58;98485.02;;;2.84;81.52
75247;BME280;63844;50.042;19.224;2023-02-01T10:56:28;98482.27;;;2.91;81.68
75247;BME280;63844;50.042;19.224;2023-02-01T10:59:05;98480.91;;;2.94;81.52
75247;BME280;63844;50.042;19.224;2023-02-01T11:01:37;98479.30;;;2.91;81.04
75247;BME280;63844;50.042;19.224;2023-02-01T11:04:10;98481.41;;;2.91;80.49
75247;BME280;63844;50.042;19.224;2023-02-01T11:06:40;98470.75;;;2.90;80.87
75247;BME280;63844;50.042;19.224;2023-02-01T11:14:19;98452.69;;;3.08;80.85
75247;BME280;63844;50.042;19.224;2023-02-01T11:16:53;98451.01;;;3.14;79.74
75247;BME280;63844;50.042;19.224;2023-02-01T11:19:20;98439.98;;;3.23;79.07
75247;BME280;63844;50.042;19.224;2023-02-01T11:21:51;98444.67;;;3.31;78.43
75247;BME280;63844;50.042;19.224;2023-02-01T11:24:39;98441.45;;;3.40;78.31
75247;BME280;63844;50.042;19.224;2023-02-01T11:27:14;98438.77;;;3.49;76.91
75247;BME280;63844;50.042;19.224;2023-02-01T11:29:44;98434.39;;;3.57;76.53
75247;BME280;63844;50.042;19.224;2023-02-01T11:32:13;98428.92;;;3.61;75.89
75247;BME280;63844;50.042;19.224;2023-02-01T11:34:43;98429.60;;;3.65;74.82
75247;BME280;63844;50.042;19.224;2023-02-01T11:37:30;98419.55;;;3.74;75.39
75247;BME280;63844;50.042;19.224;2023-02-01T11:40:00;98422.23;;;3.73;75.30
75247;BME280;63844;50.042;19.224;2023-02-01T11:42:28;98425.90;;;3.69;75.21
75247;BME280;63844;50.042;19.224;2023-02-01T11:47:44;98426.06;;;3.63;75.90
75247;BME280;63844;50.042;19.224;2023-02-01T11:50:16;98423.52;;;3.57;76.13
75247;BME280;63844;50.042;19.224;2023-02-01T11:55:52;98428.44;;;3.30;78.79
75247;BME280;63844;50.042;19.224;2023-02-01T11:58:38;98426.10;;;3.24;79.27
75247;BME280;63844;50.042;19.224;2023-02-01T12:01:12;98420.91;;;3.07;80.79
75247;BME280;63844;50.042;19.224;2023-02-01T12:04:22;98425.30;;;3.03;81.01
75247;BME280;63844;50.042;19.224;2023-02-01T12:06:51;98406.52;;;3.08;81.66
75247;BME280;63844;50.042;19.224;2023-02-01T12:12:25;98410.59;;;3.30;81.75
75247;BME280;63844;50.042;19.224;2023-02-01T12:15:16;98400.14;;;3.37;81.38
75247;BME280;63844;50.042;19.224;2023-02-01T12:20:56;98393.86;;;3.44;80.12
75247;BME280;63844;50.042;19.224;2023-02-01T12:26:33;98386.11;;;3.49;79.67
75247;BME280;63844;50.042;19.224;2023-02-01T12:34:48;98380.09;;;3.54;79.20
75247;BME280;63844;50.042;19.224;2023-02-01T12:40:16;98367.69;;;3.47;78.88
75247;BME280;63844;50.042;19.224;2023-02-01T12:42:53;98368.88;;;3.51;78.85
75247;BME280;63844;50.042;19.224;2023-02-01T12:45:39;98363.52;;;3.53;78.71
75247;BME280;63844;50.042;19.224;2023-02-01T12:50:46;98364.09;;;3.56;78.00
75247;BME280;63844;50.042;19.224;2023-02-01T12:56:18;98366.23;;;3.55;78.75
75247;BME280;63844;50.042;19.224;2023-02-01T12:58:51;98360.52;;;3.50;78.66
75247;BME280;63844;50.042;19.224;2023-02-01T13:01:26;98365.78;;;3.50;78.99
75247;BME280;63844;50.042;19.224;2023-02-01T13:06:40;98357.41;;;3.38;79.03
75247;BME280;63844;50.042;19.224;2023-02-01T13:09:41;98359.27;;;3.36;79.17
75247;BME280;63844;50.042;19.224;2023-02-01T13:12:26;98351.52;;;3.37;79.70
75247;BME280;63844;50.042;19.224;2023-02-01T13:15:00;98348.27;;;3.31;79.99
75247;BME280;63844;50.042;19.224;2023-02-01T13:17:31;98343.23;;;3.31;79.64
75247;BME280;63844;50.042;19.224;2023-02-01T13:20:04;98340.58;;;3.43;79.63
75247;BME280;63844;50.042;19.224;2023-02-01T13:22:35;98334.95;;;3.50;79.02
75247;BME280;63844;50.042;19.224;2023-02-01T13:25:35;98331.60;;;3.55;78.30
75247;BME280;63844;50.042;19.224;2023-02-01T13:28:07;98321.10;;;3.55;77.93
75247;BME280;63844;50.042;19.224;2023-02-01T13:31:06;98325.19;;;3.57;77.99
75247;BME280;63844;50.042;19.224;2023-02-01T13:34:02;98321.27;;;3.51;77.88
75247;BME280;63844;50.042;19.224;2023-02-01T13:37:04;98316.95;;;3.47;77.89
75247;BME280;63844;50.042;19.224;2023-02-01T13:42:04;98308.15;;;3.44;78.36
75247;BME280;63844;50.042;19.224;2023-02-01T13:44:42;98312.64;;;3.45;78.31
75247;BME280;63844;50.042;19.224;2023-02-01T13:47:23;98314.95;;;3.45;78.39
75247;BME280;63844;50.042;19.224;2023-02-01T13:49:52;98308.56;;;3.46;78.88
75247;BME280;63844;50.042;19.224;2023-02-01T13:52:29;98312.91;;;3.39;78.70
75247;BME280;63844;50.042;19.224;2023-02-01T13:57:50;98316.48;;;3.34;78.73
75247;BME280;63844;50.042;19.224;2023-02-01T14:00:33;98312.29;;;3.23;79.42
75247;BME280;63844;50.042;19.224;2023-02-01T14:10:57;98312.13;;;2.81;82.62
75247;BME280;63844;50.042;19.224;2023-02-01T14:13:35;98316.62;;;2.71;83.12
75247;BME280;63844;50.042;19.224;2023-02-01T14:23:46;98329.02;;;2.39;84.79
75247;BME280;63844;50.042;19.224;2023-02-01T14:26:16;98323.95;;;2.31;84.99
75247;BME280;63844;50.042;19.224;2023-02-01T14:28:56;98327.48;;;2.19;85.32
75247;BME280;63844;50.042;19.224;2023-02-01T14:31:38;98326.46;;;2.10;86.10
75247;BME280;63844;50.042;19.224;2023-02-01T14:34:18;98324.20;;;1.89;86.82
75247;BME280;63844;50.042;19.224;2023-02-01T14:37:00;98332.77;;;1.84;87.19
75247;BME280;63844;50.042;19.224;2023-02-01T14:39:32;98334.80;;;1.77;87.24
75247;BME280;63844;50.042;19.224;2023-02-01T14:42:12;98339.80;;;1.70;87.85
75247;BME280;63844;50.042;19.224;2023-02-01T14:44:41;98347.34;;;1.61;88.71
75247;BME280;63844;50.042;19.224;2023-02-01T14:47:28;98350.81;;;1.61;88.82
75247;BME280;63844;50.042;19.224;2023-02-01T14:52:47;98357.40;;;1.49;89.70
75247;BME280;63844;50.042;19.224;2023-02-01T14:55:29;98352.93;;;1.47;90.04
75247;BME280;63844;50.042;19.224;2023-02-01T14:58:02;98353.77;;;1.44;89.92
75247;BME280;63844;50.042;19.224;2023-02-01T15:00:32;98360.65;;;1.41;90.22
75247;BME280;63844;50.042;19.224;2023-02-01T15:03:22;98363.44;;;1.41;89.86
75247;BME280;63844;50.042;19.224;2023-02-01T15:05:57;98358.23;;;1.41;89.87
75247;BME280;63844;50.042;19.224;2023-02-01T15:08:32;98357.55;;;1.41;89.97